sensor_id;sensor_type;location;lat;lon;timestamp;pressure;altitude;pressure_sealevel;temperature;humidity
6136;BME280;24008;42.664;23.372;2024-01-15T00:00:05;94156.91;;;-3.27;79.32
6136;BME280;24008;42.664;23.372;2024-01-15T00:02:33;94153.06;;;-3.34;79.44
6136;BME280;24008;42.664;23.372;2024-01-15T00:05:00;94145.88;;;-3.40;79.70
6136;BME280;24008;42.664;23.372;2024-01-15T00:07:27;94125.00;;;-3.56;79.77
6136;BME280;24008;42.664;23.372;2024-01-15T00:09:53;94110.00;;;-3.56;79.92
6136;BME280;24008;42.664;23.372;2024-01-15T00:12:20;93862.84;;;-5.12;79.71
6136;BME280;24008;42.664;23.372;2024-01-15T00:14:46;94095.91;;;-3.75;80.00
6136;BME280;24008;42.664;23.372;2024-01-15T00:17:13;94139.97;;;-3.56;79.92
6136;BME280;24008;42.664;23.372;2024-01-15T00:19:41;94142.03;;;-3.65;79.93
6136;BME280;24008;42.664;23.372;2024-01-15T00:22:08;94153.03;;;-3.69;80.09
6136;BME280;24008;42.664;23.372;2024-01-15T00:24:34;94142.44;;;-3.74;80.69
6136;BME280;24008;42.664;23.372;2024-01-15T00:27:01;94129.06;;;-3.90;80.86
6136;BME280;24008;42.664;23.372;2024-01-15T00:29:28;94141.41;;;-3.87;81.56
6136;BME280;24008;42.664;23.372;2024-01-15T00:31:54;94116.66;;;-4.10;81.58
6136;BME280;24008;42.664;23.372;2024-01-15T00:34:21;94153.28;;;-3.92;81.82
6136;BME280;24008;42.664;23.372;2024-01-15T00:36:49;94145.03;;;-3.94;81.74
6136;BME280;24008;42.664;23.372;2024-01-15T00:39:16;94091.94;;;-4.33;82.07
6136;BME280;24008;42.664;23.372;2024-01-15T00:41:43;94078.81;;;-4.37;82.32
6136;BME280;24008;42.664;23.372;2024-01-15T00:44:09;94118.22;;;-4.08;82.82
6136;BME280;24008;42.664;23.372;2024-01-15T00:46:42;94112.56;;;-4.11;82.83
6136;BME280;24008;42.664;23.372;2024-01-15T00:49:10;94146.41;;;-3.87;83.13
6136;BME280;24008;42.664;23.372;2024-01-15T00:51:37;94144.63;;;-3.85;83.56
6136;BME280;24008;42.664;23.372;2024-01-15T00:54:05;94149.59;;;-3.85;83.42
6136;BME280;24008;42.664;23.372;2024-01-15T00:56:32;94080.81;;;-4.26;83.67
6136;BME280;24008;42.664;23.372;2024-01-15T00:59:00;94133.56;;;-3.98;83.76
6136;BME280;24008;42.664;23.372;2024-01-15T01:01:26;94110.13;;;-4.13;83.40
6136;BME280;24008;42.664;23.372;2024-01-15T01:03:53;94144.59;;;-4.02;83.18
6136;BME280;24008;42.664;23.372;2024-01-15T01:06:20;94145.59;;;-4.06;83.18
6136;BME280;24008;42.664;23.372;2024-01-15T01:08:46;94137.44;;;-4.10;83.38
6136;BME280;24008;42.664;23.372;2024-01-15T01:11:15;94139.28;;;-4.13;83.19
6136;BME280;24008;42.664;23.372;2024-01-15T01:13:41;94092.13;;;-4.57;83.44
6136;BME280;24008;42.664;23.372;2024-01-15T01:16:08;93976.56;;;-5.11;83.62
6136;BME280;24008;42.664;23.372;2024-01-15T01:18:35;94129.81;;;-4.07;84.04
6136;BME280;24008;42.664;23.372;2024-01-15T01:21:02;94104.59;;;-4.19;84.04
6136;BME280;24008;42.664;23.372;2024-01-15T01:23:28;94105.47;;;-4.20;83.68
6136;BME280;24008;42.664;23.372;2024-01-15T01:25:55;94140.47;;;-4.03;83.84
6136;BME280;24008;42.664;23.372;2024-01-15T01:28:23;94103.28;;;-4.26;83.46
6136;BME280;24008;42.664;23.372;2024-01-15T01:30:50;94095.03;;;-4.28;83.32
6136;BME280;24008;42.664;23.372;2024-01-15T01:33:17;94116.19;;;-4.00;83.66
6136;BME280;24008;42.664;23.372;2024-01-15T01:35:43;94119.94;;;-3.91;83.94
6136;BME280;24008;42.664;23.372;2024-01-15T01:38:10;94109.91;;;-3.89;83.95
6136;BME280;24008;42.664;23.372;2024-01-15T01:40:37;93857.13;;;-5.51;83.95
6136;BME280;24008;42.664;23.372;2024-01-15T01:43:04;94077.16;;;-4.19;83.82
6136;BME280;24008;42.664;23.372;2024-01-15T01:45:32;94113.75;;;-4.01;83.42
6136;BME280;24008;42.664;23.372;2024-01-15T01:48:00;94080.81;;;-4.26;83.63
6136;BME280;24008;42.664;23.372;2024-01-15T01:50:27;94064.50;;;-4.52;83.60
6136;BME280;24008;42.664;23.372;2024-01-15T01:52:54;94022.81;;;-4.86;83.46
6136;BME280;24008;42.664;23.372;2024-01-15T01:55:24;94047.31;;;-4.58;83.29
6136;BME280;24008;42.664;23.372;2024-01-15T01:57:52;94007.19;;;-4.71;83.79
6136;BME280;24008;42.664;23.372;2024-01-15T02:00:19;94114.16;;;-4.10;83.79
6136;BME280;24008;42.664;23.372;2024-01-15T02:02:47;94036.28;;;-4.53;83.74
6136;BME280;24008;42.664;23.372;2024-01-15T02:05:15;94061.53;;;-4.42;83.55
6136;BME280;24008;42.664;23.372;2024-01-15T02:07:44;94061.53;;;-4.42;83.94
6136;BME280;24008;42.664;23.372;2024-01-15T02:10:26;94098.88;;;-4.21;83.64
6136;BME280;24008;42.664;23.372;2024-01-15T02:12:53;94094.63;;;-4.19;83.72
6136;BME280;24008;42.664;23.372;2024-01-15T02:15:20;94097.78;;;-4.16;83.68
6136;BME280;24008;42.664;23.372;2024-01-15T02:17:58;93968.53;;;-4.98;83.85
6136;BME280;24008;42.664;23.372;2024-01-15T02:20:25;94084.78;;;-4.22;83.67
6136;BME280;24008;42.664;23.372;2024-01-15T02:22:52;94039.16;;;-4.43;83.68
6136;BME280;24008;42.664;23.372;2024-01-15T02:25:20;94072.97;;;-4.19;83.33
6136;BME280;24008;42.664;23.372;2024-01-15T02:27:47;94057.13;;;-4.18;83.33
6136;BME280;24008;42.664;23.372;2024-01-15T02:30:14;94054.56;;;-4.16;83.29
6136;BME280;24008;42.664;23.372;2024-01-15T02:32:42;93998.94;;;-4.36;83.38
6136;BME280;24008;42.664;23.372;2024-01-15T02:35:08;94028.28;;;-3.87;84.04
6136;BME280;24008;42.664;23.372;2024-01-15T02:37:35;94028.78;;;-3.64;84.84
6136;BME280;24008;42.664;23.372;2024-01-15T02:40:03;93994.56;;;-3.79;84.71
6136;BME280;24008;42.664;23.372;2024-01-15T02:42:31;94017.19;;;-3.65;84.67
6136;BME280;24008;42.664;23.372;2024-01-15T02:44:57;93969.28;;;-4.07;83.90
6136;BME280;24008;42.664;23.372;2024-01-15T02:47:24;94025.69;;;-3.69;83.83
6136;BME280;24008;42.664;23.372;2024-01-15T02:49:51;94010.56;;;-3.83;83.67
6136;BME280;24008;42.664;23.372;2024-01-15T02:52:18;93946.38;;;-4.32;83.05
6136;BME280;24008;42.664;23.372;2024-01-15T02:54:44;94031.34;;;-4.00;82.40
6136;BME280;24008;42.664;23.372;2024-01-15T02:57:11;93989.91;;;-4.38;82.49
6136;BME280;24008;42.664;23.372;2024-01-15T02:59:39;93963.78;;;-4.67;82.33
6136;BME280;24008;42.664;23.372;2024-01-15T03:02:06;94034.16;;;-4.24;82.81
6136;BME280;24008;42.664;23.372;2024-01-15T03:04:32;94025.19;;;-4.28;83.38
6136;BME280;24008;42.664;23.372;2024-01-15T03:06:59;94025.06;;;-4.25;83.46
6136;BME280;24008;42.664;23.372;2024-01-15T03:09:26;93957.00;;;-4.82;83.79
6136;BME280;24008;42.664;23.372;2024-01-15T03:11:53;94026.56;;;-4.40;83.80
6136;BME280;24008;42.664;23.372;2024-01-15T03:14:20;93885.34;;;-5.32;84.04
6136;BME280;24008;42.664;23.372;2024-01-15T03:16:48;94024.44;;;-4.48;84.21
6136;BME280;24008;42.664;23.372;2024-01-15T03:19:14;94020.25;;;-4.47;84.48
6136;BME280;24008;42.664;23.372;2024-01-15T03:21:41;94019.56;;;-4.51;84.79
6136;BME280;24008;42.664;23.372;2024-01-15T03:24:08;93984.59;;;-4.68;84.84
6136;BME280;24008;42.664;23.372;2024-01-15T03:26:34;94017.53;;;-4.43;85.02
6136;BME280;24008;42.664;23.372;2024-01-15T03:29:00;93974.78;;;-4.71;85.25
6136;BME280;24008;42.664;23.372;2024-01-15T03:31:27;93985.34;;;-4.66;85.23
6136;BME280;24008;42.664;23.372;2024-01-15T03:33:55;94008.56;;;-4.47;85.96
6136;BME280;24008;42.664;23.372;2024-01-15T03:36:21;94005.28;;;-4.47;86.08
6136;BME280;24008;42.664;23.372;2024-01-15T03:38:48;93837.09;;;-5.48;85.96
6136;BME280;24008;42.664;23.372;2024-01-15T03:41:15;93994.41;;;-4.46;86.39
6136;BME280;24008;42.664;23.372;2024-01-15T03:43:41;93999.19;;;-4.42;86.48
6136;BME280;24008;42.664;23.372;2024-01-15T03:46:08;93984.22;;;-4.42;86.50
6136;BME280;24008;42.664;23.372;2024-01-15T03:48:35;93998.19;;;-4.38;86.71
6136;BME280;24008;42.664;23.372;2024-01-15T03:51:03;94010.50;;;-4.35;86.57
6136;BME280;24008;42.664;23.372;2024-01-15T03:53:30;93970.84;;;-4.58;86.38
6136;BME280;24008;42.664;23.372;2024-01-15T03:55:57;93992.72;;;-4.46;86.29
6136;BME280;24008;42.664;23.372;2024-01-15T03:58:24;93971.75;;;-4.59;86.46
6136;BME280;24008;42.664;23.372;2024-01-15T04:00:50;93994.94;;;-4.40;86.45
6136;BME280;24008;42.664;23.372;2024-01-15T04:03:17;93727.31;;;-6.15;86.08
6136;BME280;24008;42.664;23.372;2024-01-15T04:05:44;93822.41;;;-5.54;86.34
6136;BME280;24008;42.664;23.372;2024-01-15T04:08:12;93994.75;;;-4.54;86.53
6136;BME280;24008;42.664;23.372;2024-01-15T04:10:38;93978.72;;;-4.48;86.75
6136;BME280;24008;42.664;23.372;2024-01-15T04:13:05;93938.91;;;-4.68;86.58
6136;BME280;24008;42.664;23.372;2024-01-15T04:15:32;93973.31;;;-4.39;87.17
6136;BME280;24008;42.664;23.372;2024-01-15T04:17:58;93985.41;;;-4.31;86.95
6136;BME280;24008;42.664;23.372;2024-01-15T04:20:26;93950.03;;;-4.57;86.87
6136;BME280;24008;42.664;23.372;2024-01-15T04:22:53;93980.28;;;-4.28;87.02
6136;BME280;24008;42.664;23.372;2024-01-15T04:25:21;93986.91;;;-4.27;86.87
6136;BME280;24008;42.664;23.372;2024-01-15T04:27:48;93855.06;;;-5.05;87.02
6136;BME280;24008;42.664;23.372;2024-01-15T04:30:14;93967.06;;;-4.30;87.27
6136;BME280;24008;42.664;23.372;2024-01-15T04:32:41;93988.22;;;-4.20;87.19
6136;BME280;24008;42.664;23.372;2024-01-15T04:35:08;93988.09;;;-4.17;87.08
6136;BME280;24008;42.664;23.372;2024-01-15T04:37:34;93980.47;;;-4.14;87.05
6136;BME280;24008;42.664;23.372;2024-01-15T04:40:02;93941.69;;;-4.39;87.13
6136;BME280;24008;42.664;23.372;2024-01-15T04:42:30;93974.44;;;-4.10;87.10
6136;BME280;24008;42.664;23.372;2024-01-15T04:44:57;93986.91;;;-4.10;86.88
6136;BME280;24008;42.664;23.372;2024-01-15T04:47:24;93939.78;;;-4.33;86.96
6136;BME280;24008;42.664;23.372;2024-01-15T04:49:51;93908.38;;;-4.55;86.83
6136;BME280;24008;42.664;23.372;2024-01-15T04:52:17;93928.19;;;-4.35;86.56
6136;BME280;24008;42.664;23.372;2024-01-15T04:54:44;93983.09;;;-4.17;86.67
6136;BME280;24008;42.664;23.372;2024-01-15T04:57:11;93961.59;;;-4.20;86.60
6136;BME280;24008;42.664;23.372;2024-01-15T04:59:39;93965.84;;;-4.22;86.73
6136;BME280;24008;42.664;23.372;2024-01-15T05:02:06;93925.19;;;-4.41;86.70
6136;BME280;24008;42.664;23.372;2024-01-15T05:04:32;93962.31;;;-4.18;87.08
6136;BME280;24008;42.664;23.372;2024-01-15T05:06:59;93961.16;;;-4.11;86.93
6136;BME280;24008;42.664;23.372;2024-01-15T05:09:26;93872.44;;;-4.68;87.03
6136;BME280;24008;42.664;23.372;2024-01-15T05:11:53;93915.72;;;-4.35;86.90
6136;BME280;24008;42.664;23.372;2024-01-15T05:14:19;93944.88;;;-4.01;87.06
6136;BME280;24008;42.664;23.372;2024-01-15T05:16:48;93965.34;;;-3.94;87.10
6136;BME280;24008;42.664;23.372;2024-01-15T05:19:15;93938.47;;;-3.89;87.28
6136;BME280;24008;42.664;23.372;2024-01-15T05:21:42;93906.72;;;-4.03;87.60
6136;BME280;24008;42.664;23.372;2024-01-15T05:24:08;93914.25;;;-4.04;87.38
6136;BME280;24008;42.664;23.372;2024-01-15T05:26:35;93940.25;;;-3.91;86.90
6136;BME280;24008;42.664;23.372;2024-01-15T05:29:01;93949.56;;;-3.94;86.93
6136;BME280;24008;42.664;23.372;2024-01-15T05:31:29;93955.06;;;-4.05;86.56
6136;BME280;24008;42.664;23.372;2024-01-15T05:33:57;93868.78;;;-4.61;86.23
6136;BME280;24008;42.664;23.372;2024-01-15T05:36:23;93918.22;;;-4.35;86.38
6136;BME280;24008;42.664;23.372;2024-01-15T05:38:50;93918.31;;;-4.36;86.61
6136;BME280;24008;42.664;23.372;2024-01-15T05:41:17;93934.38;;;-4.24;86.57
6136;BME280;24008;42.664;23.372;2024-01-15T05:43:44;93911.97;;;-4.43;86.92
6136;BME280;24008;42.664;23.372;2024-01-15T05:46:11;93825.78;;;-5.00;86.99
6136;BME280;24008;42.664;23.372;2024-01-15T05:48:38;93927.75;;;-4.43;86.82
6136;BME280;24008;42.664;23.372;2024-01-15T05:51:06;93926.00;;;-4.41;86.89
6136;BME280;24008;42.664;23.372;2024-01-15T05:53:32;93921.16;;;-4.44;86.97
6136;BME280;24008;42.664;23.372;2024-01-15T05:55:59;93878.34;;;-4.71;87.38
6136;BME280;24008;42.664;23.372;2024-01-15T05:58:26;93875.00;;;-4.69;87.38
6136;BME280;24008;42.664;23.372;2024-01-15T06:00:53;93865.56;;;-4.63;87.64
6136;BME280;24008;42.664;23.372;2024-01-15T06:03:20;93843.38;;;-4.86;87.98
6136;BME280;24008;42.664;23.372;2024-01-15T06:05:46;93892.22;;;-4.65;87.99
6136;BME280;24008;42.664;23.372;2024-01-15T06:08:35;93925.69;;;-4.52;88.28
6136;BME280;24008;42.664;23.372;2024-01-15T06:11:02;93716.69;;;-5.64;88.36
6136;BME280;24008;42.664;23.372;2024-01-15T06:13:28;93578.22;;;-6.36;88.21
6136;BME280;24008;42.664;23.372;2024-01-15T06:15:55;93898.41;;;-4.20;88.81
6136;BME280;24008;42.664;23.372;2024-01-15T06:18:22;93928.50;;;-3.89;88.90
6136;BME280;24008;42.664;23.372;2024-01-15T06:20:48;93818.16;;;-4.46;88.85
6136;BME280;24008;42.664;23.372;2024-01-15T06:23:15;93919.78;;;-3.65;88.58
6136;BME280;24008;42.664;23.372;2024-01-15T06:25:43;93853.63;;;-3.89;88.70
6136;BME280;24008;42.664;23.372;2024-01-15T06:28:10;93880.91;;;-3.53;88.58
6136;BME280;24008;42.664;23.372;2024-01-15T06:30:36;93869.34;;;-3.38;88.54
6136;BME280;24008;42.664;23.372;2024-01-15T06:33:04;93908.16;;;-3.01;88.13
6136;BME280;24008;42.664;23.372;2024-01-15T06:35:31;93921.56;;;-2.86;87.64
6136;BME280;24008;42.664;23.372;2024-01-15T06:38:18;93938.56;;;-2.77;86.47
6136;BME280;24008;42.664;23.372;2024-01-15T06:40:47;93911.06;;;-2.77;85.93
6136;BME280;24008;42.664;23.372;2024-01-15T06:43:13;93922.84;;;-1.74;86.51
6136;BME280;24008;42.664;23.372;2024-01-15T06:45:40;93853.38;;;-1.15;84.88
6136;BME280;24008;42.664;23.372;2024-01-15T06:48:07;93870.03;;;-0.60;78.05
6136;BME280;24008;42.664;23.372;2024-01-15T06:50:34;93921.91;;;-0.07;74.05
6136;BME280;24008;42.664;23.372;2024-01-15T06:53:00;93930.84;;;-0.16;72.02
6136;BME280;24008;42.664;23.372;2024-01-15T06:55:27;93937.00;;;-0.34;72.05
6136;BME280;24008;42.664;23.372;2024-01-15T06:57:55;93933.34;;;-0.69;71.71
6136;BME280;24008;42.664;23.372;2024-01-15T07:00:22;93915.16;;;-1.00;71.84
6136;BME280;24008;42.664;23.372;2024-01-15T07:02:49;93941.63;;;-0.82;72.90
6136;BME280;24008;42.664;23.372;2024-01-15T07:05:15;93935.84;;;-1.11;73.37
6136;BME280;24008;42.664;23.372;2024-01-15T07:07:42;93951.41;;;-1.20;73.48
6136;BME280;24008;42.664;23.372;2024-01-15T07:10:09;93934.78;;;-1.35;74.00
6136;BME280;24008;42.664;23.372;2024-01-15T07:12:36;93844.19;;;-2.00;74.71
6136;BME280;24008;42.664;23.372;2024-01-15T07:15:05;93942.75;;;-1.28;75.47
6136;BME280;24008;42.664;23.372;2024-01-15T07:17:33;93942.56;;;-1.25;75.65
6136;BME280;24008;42.664;23.372;2024-01-15T07:20:00;93948.66;;;-1.29;75.35
6136;BME280;24008;42.664;23.372;2024-01-15T07:22:26;93948.28;;;-1.37;75.98
6136;BME280;24008;42.664;23.372;2024-01-15T07:24:53;93741.84;;;-2.77;76.31
6136;BME280;24008;42.664;23.372;2024-01-15T07:27:20;93955.25;;;-1.42;77.05
6136;BME280;24008;42.664;23.372;2024-01-15T07:29:47;93938.81;;;-1.47;77.33
6136;BME280;24008;42.664;23.372;2024-01-15T07:32:15;93877.22;;;-1.79;77.34
6136;BME280;24008;42.664;23.372;2024-01-15T07:34:42;93926.25;;;-1.32;77.52
6136;BME280;24008;42.664;23.372;2024-01-15T07:37:08;93882.41;;;-1.54;77.36
6136;BME280;24008;42.664;23.372;2024-01-15T07:39:35;93697.75;;;-2.78;77.89
6136;BME280;24008;42.664;23.372;2024-01-15T07:42:02;93940.16;;;-1.27;77.60
6136;BME280;24008;42.664;23.372;2024-01-15T07:44:29;93936.50;;;-1.35;77.30
6136;BME280;24008;42.664;23.372;2024-01-15T07:46:55;93933.44;;;-1.26;78.01
6136;BME280;24008;42.664;23.372;2024-01-15T07:49:23;93950.53;;;-1.04;77.92
6136;BME280;24008;42.664;23.372;2024-01-15T07:51:50;93948.81;;;-1.04;77.39
6136;BME280;24008;42.664;23.372;2024-01-15T07:54:17;93879.72;;;-1.36;76.92
6136;BME280;24008;42.664;23.372;2024-01-15T07:56:54;93893.41;;;-1.14;76.38
6136;BME280;24008;42.664;23.372;2024-01-15T07:59:21;93798.13;;;-1.55;75.92
6136;BME280;24008;42.664;23.372;2024-01-15T08:01:47;93897.84;;;-0.90;75.57
6136;BME280;24008;42.664;23.372;2024-01-15T08:04:14;93918.50;;;-0.46;75.00
6136;BME280;24008;42.664;23.372;2024-01-15T08:06:42;93904.59;;;-0.37;73.55
6136;BME280;24008;42.664;23.372;2024-01-15T08:09:09;93886.44;;;-0.82;72.43
6136;BME280;24008;42.664;23.372;2024-01-15T08:11:36;93923.84;;;-0.64;73.58
6136;BME280;24008;42.664;23.372;2024-01-15T08:14:05;93885.91;;;-0.60;73.02
6136;BME280;24008;42.664;23.372;2024-01-15T08:16:32;93933.63;;;-0.20;71.74
6136;BME280;24008;42.664;23.372;2024-01-15T08:18:59;93914.94;;;0.11;71.31
6136;BME280;24008;42.664;23.372;2024-01-15T08:21:25;93896.22;;;0.27;69.58
6136;BME280;24008;42.664;23.372;2024-01-15T08:23:56;93845.69;;;0.07;68.74
6136;BME280;24008;42.664;23.372;2024-01-15T08:26:23;93928.53;;;0.84;68.26
6136;BME280;24008;42.664;23.372;2024-01-15T08:28:50;93877.03;;;0.64;68.80
6136;BME280;24008;42.664;23.372;2024-01-15T08:31:16;93952.75;;;1.34;68.96
6136;BME280;24008;42.664;23.372;2024-01-15T08:33:43;93644.25;;;-0.11;67.62
6136;BME280;24008;42.664;23.372;2024-01-15T08:36:10;93839.78;;;1.77;66.68
6136;BME280;24008;42.664;23.372;2024-01-15T08:38:37;93909.47;;;2.47;64.12
6136;BME280;24008;42.664;23.372;2024-01-15T08:41:05;93519.41;;;0.26;62.94
6136;BME280;24008;42.664;23.372;2024-01-15T08:43:34;93749.34;;;2.96;62.16
6136;BME280;24008;42.664;23.372;2024-01-15T08:46:00;93497.06;;;2.84;56.54
6136;BME280;24008;42.664;23.372;2024-01-15T08:48:27;93826.44;;;6.23;53.42
6136;BME280;24008;42.664;23.372;2024-01-15T08:50:54;93833.44;;;6.95;47.31
6136;BME280;24008;42.664;23.372;2024-01-15T08:53:22;93710.19;;;6.91;46.56
6136;BME280;24008;42.664;23.372;2024-01-15T08:55:49;93882.53;;;8.65;44.83
6136;BME280;24008;42.664;23.372;2024-01-15T08:58:18;93820.81;;;8.45;42.67
6136;BME280;24008;42.664;23.372;2024-01-15T09:00:44;93895.13;;;8.66;43.07
6136;BME280;24008;42.664;23.372;2024-01-15T09:03:11;93854.06;;;8.70;43.50
6136;BME280;24008;42.664;23.372;2024-01-15T09:05:38;93820.84;;;9.13;40.96
6136;BME280;24008;42.664;23.372;2024-01-15T09:08:06;93865.47;;;9.84;40.41
6136;BME280;24008;42.664;23.372;2024-01-15T09:10:33;93824.78;;;9.66;39.73
6136;BME280;24008;42.664;23.372;2024-01-15T09:13:00;93777.59;;;9.54;40.54
6136;BME280;24008;42.664;23.372;2024-01-15T09:15:28;93663.63;;;8.55;40.14
6136;BME280;24008;42.664;23.372;2024-01-15T09:17:55;93695.28;;;9.19;39.71
6136;BME280;24008;42.664;23.372;2024-01-15T09:20:22;93657.16;;;8.77;39.61
6136;BME280;24008;42.664;23.372;2024-01-15T09:22:51;93741.19;;;8.35;41.30
6136;BME280;24008;42.664;23.372;2024-01-15T09:25:18;93555.91;;;6.22;42.84
6136;BME280;24008;42.664;23.372;2024-01-15T09:27:45;93708.28;;;4.87;46.13
6136;BME280;24008;42.664;23.372;2024-01-15T09:30:12;93820.53;;;4.67;49.54
6136;BME280;24008;42.664;23.372;2024-01-15T09:32:40;93789.25;;;4.07;50.20
6136;BME280;24008;42.664;23.372;2024-01-15T09:35:08;93680.13;;;3.30;51.11
6136;BME280;24008;42.664;23.372;2024-01-15T09:37:35;93291.47;;;-0.06;53.52
6136;BME280;24008;42.664;23.372;2024-01-15T09:40:02;93603.00;;;1.66;54.75
6136;BME280;24008;42.664;23.372;2024-01-15T09:42:30;93599.31;;;1.59;55.58
6136;BME280;24008;42.664;23.372;2024-01-15T09:44:58;93729.75;;;2.00;55.08
6136;BME280;24008;42.664;23.372;2024-01-15T09:47:24;93644.09;;;1.56;56.90
6136;BME280;24008;42.664;23.372;2024-01-15T09:49:53;93799.88;;;2.51;57.23
6136;BME280;24008;42.664;23.372;2024-01-15T09:52:21;93666.78;;;1.67;57.01
6136;BME280;24008;42.664;23.372;2024-01-15T09:54:48;93189.53;;;-1.45;58.25
6136;BME280;24008;42.664;23.372;2024-01-15T09:57:16;93555.56;;;0.71;59.14
6136;BME280;24008;42.664;23.372;2024-01-15T09:59:44;93564.19;;;-0.03;59.32
6136;BME280;24008;42.664;23.372;2024-01-15T10:02:13;93634.63;;;1.02;60.44
6136;BME280;24008;42.664;23.372;2024-01-15T10:04:44;93258.81;;;-2.06;60.23
6136;BME280;24008;42.664;23.372;2024-01-15T10:07:15;93763.78;;;1.49;61.17
6136;BME280;24008;42.664;23.372;2024-01-15T10:09:44;93581.22;;;0.05;60.72
6136;BME280;24008;42.664;23.372;2024-01-15T10:12:12;93776.19;;;1.28;61.52
6136;BME280;24008;42.664;23.372;2024-01-15T10:14:40;93750.16;;;1.05;62.78
6136;BME280;24008;42.664;23.372;2024-01-15T10:17:12;93720.06;;;0.80;61.54
6136;BME280;24008;42.664;23.372;2024-01-15T10:19:39;93732.44;;;1.06;61.82
6136;BME280;24008;42.664;23.372;2024-01-15T10:22:08;93704.47;;;0.98;61.55
6136;BME280;24008;42.664;23.372;2024-01-15T10:24:36;93614.28;;;0.35;61.31
6136;BME280;24008;42.664;23.372;2024-01-15T10:27:07;93415.84;;;-0.72;61.93
6136;BME280;24008;42.664;23.372;2024-01-15T10:29:35;93712.13;;;0.97;62.50
6136;BME280;24008;42.664;23.372;2024-01-15T10:32:02;93650.25;;;0.59;62.77
6136;BME280;24008;42.664;23.372;2024-01-15T10:34:30;93730.19;;;1.26;62.72
6136;BME280;24008;42.664;23.372;2024-01-15T10:36:57;93687.31;;;1.27;62.31
6136;BME280;24008;42.664;23.372;2024-01-15T10:39:24;93700.91;;;1.25;61.79
6136;BME280;24008;42.664;23.372;2024-01-15T10:41:52;93687.53;;;1.35;62.75
6136;BME280;24008;42.664;23.372;2024-01-15T10:44:19;93698.50;;;1.34;62.21
6136;BME280;24008;42.664;23.372;2024-01-15T10:46:46;93707.56;;;1.37;62.38
6136;BME280;24008;42.664;23.372;2024-01-15T10:49:13;93525.97;;;0.40;62.72
6136;BME280;24008;42.664;23.372;2024-01-15T10:51:41;93701.34;;;1.65;62.48
6136;BME280;24008;42.664;23.372;2024-01-15T10:54:09;93672.94;;;1.74;62.38
6136;BME280;24008;42.664;23.372;2024-01-15T10:56:37;93701.13;;;1.90;62.41
6136;BME280;24008;42.664;23.372;2024-01-15T10:59:05;93590.63;;;1.41;61.95
6136;BME280;24008;42.664;23.372;2024-01-15T11:01:33;93488.38;;;1.18;62.56
6136;BME280;24008;42.664;23.372;2024-01-15T11:04:00;93677.28;;;2.28;60.98
6136;BME280;24008;42.664;23.372;2024-01-15T11:06:28;93717.50;;;2.29;60.96
6136;BME280;24008;42.664;23.372;2024-01-15T11:09:07;93649.38;;;2.51;61.74
6136;BME280;24008;42.664;23.372;2024-01-15T11:11:35;93568.72;;;1.97;59.86
6136;BME280;24008;42.664;23.372;2024-01-15T11:14:01;93663.94;;;2.80;60.56
6136;BME280;24008;42.664;23.372;2024-01-15T11:16:53;93662.66;;;2.85;59.20
6136;BME280;24008;42.664;23.372;2024-01-15T11:19:21;93569.44;;;2.20;60.38
6136;BME280;24008;42.664;23.372;2024-01-15T11:21:48;93630.56;;;2.87;60.86
6136;BME280;24008;42.664;23.372;2024-01-15T11:24:33;93569.47;;;2.52;59.01
6136;BME280;24008;42.664;23.372;2024-01-15T11:27:00;93410.84;;;1.55;59.01
6136;BME280;24008;42.664;23.372;2024-01-15T11:29:31;93554.41;;;2.82;59.96
6136;BME280;24008;42.664;23.372;2024-01-15T11:32:03;93533.59;;;2.90;58.48
6136;BME280;24008;42.664;23.372;2024-01-15T11:34:49;93642.22;;;3.72;57.57
6136;BME280;24008;42.664;23.372;2024-01-15T11:37:17;93623.66;;;3.92;57.30
6136;BME280;24008;42.664;23.372;2024-01-15T11:39:44;93644.22;;;4.08;55.41
6136;BME280;24008;42.664;23.372;2024-01-15T11:42:12;93636.22;;;4.13;55.98
6136;BME280;24008;42.664;23.372;2024-01-15T11:44:40;93537.94;;;3.70;56.06
6136;BME280;24008;42.664;23.372;2024-01-15T11:47:09;93633.66;;;4.03;55.40
6136;BME280;24008;42.664;23.372;2024-01-15T11:49:58;93628.38;;;3.76;56.77
6136;BME280;24008;42.664;23.372;2024-01-15T11:52:26;93607.66;;;3.82;56.97
6136;BME280;24008;42.664;23.372;2024-01-15T11:54:59;93635.00;;;3.67;56.69
6136;BME280;24008;42.664;23.372;2024-01-15T11:57:42;93608.13;;;3.66;57.18
6136;BME280;24008;42.664;23.372;2024-01-15T12:00:12;93440.94;;;2.71;56.41
6136;BME280;24008;42.664;23.372;2024-01-15T12:02:42;93406.34;;;2.32;57.01
6136;BME280;24008;42.664;23.372;2024-01-15T12:05:10;93561.03;;;3.55;57.16
6136;BME280;24008;42.664;23.372;2024-01-15T12:07:38;93601.00;;;3.81;57.12
6136;BME280;24008;42.664;23.372;2024-01-15T12:10:08;93538.78;;;2.88;57.25
6136;BME280;24008;42.664;23.372;2024-01-15T12:12:47;93521.56;;;3.24;56.31
6136;BME280;24008;42.664;23.372;2024-01-15T12:15:15;93584.50;;;3.77;57.53
6136;BME280;24008;42.664;23.372;2024-01-15T12:17:45;93562.97;;;3.73;56.80
6136;BME280;24008;42.664;23.372;2024-01-15T12:20:13;93395.03;;;2.47;57.08
6136;BME280;24008;42.664;23.372;2024-01-15T12:22:41;93451.47;;;2.76;58.31
6136;BME280;24008;42.664;23.372;2024-01-15T12:25:11;93588.16;;;3.63;58.64
6136;BME280;24008;42.664;23.372;2024-01-15T12:27:38;93571.28;;;3.63;58.23
6136;BME280;24008;42.664;23.372;2024-01-15T12:30:05;93571.16;;;3.65;58.27
6136;BME280;24008;42.664;23.372;2024-01-15T12:32:32;93544.81;;;3.58;58.03
6136;BME280;24008;42.664;23.372;2024-01-15T12:35:11;93554.69;;;3.71;58.60
6136;BME280;24008;42.664;23.372;2024-01-15T12:37:44;93570.63;;;3.61;58.00
6136;BME280;24008;42.664;23.372;2024-01-15T12:40:12;93545.28;;;3.42;58.69
6136;BME280;24008;42.664;23.372;2024-01-15T12:42:40;93504.47;;;3.07;58.27
6136;BME280;24008;42.664;23.372;2024-01-15T12:45:08;93504.69;;;3.24;58.15
6136;BME280;24008;42.664;23.372;2024-01-15T12:47:36;93448.53;;;3.02;58.14
6136;BME280;24008;42.664;23.372;2024-01-15T12:50:06;93490.25;;;3.36;57.88
6136;BME280;24008;42.664;23.372;2024-01-15T12:52:33;93554.97;;;3.77;57.62
6136;BME280;24008;42.664;23.372;2024-01-15T12:55:00;93543.38;;;3.75;57.63
6136;BME280;24008;42.664;23.372;2024-01-15T12:57:27;93534.16;;;3.54;58.08
6136;BME280;24008;42.664;23.372;2024-01-15T12:59:54;93545.16;;;3.84;58.43
6136;BME280;24008;42.664;23.372;2024-01-15T13:02:21;93534.50;;;3.80;58.26
6136;BME280;24008;42.664;23.372;2024-01-15T13:04:48;93488.03;;;3.52;58.15
6136;BME280;24008;42.664;23.372;2024-01-15T13:07:16;93536.13;;;3.91;58.13